sensor_id;sensor_type;location;lat;lon;timestamp;temperature;humidity
1896;DHT22;1455;51.440;7.308;2022-12-17T03:44:26;-2.70;99.90
1896;DHT22;1455;51.440;7.308;2022-12-17T03:47:29;-2.60;99.90
1896;DHT22;1455;51.440;7.308;2022-12-17T03:50:33;-2.70;99.90
1896;DHT22;1455;51.440;7.308;2022-12-17T03:53:36;-2.70;99.90
1896;DHT22;1455;51.440;7.308;2022-12-17T11:27:36;8.90;99.90
1896;DHT22;1455;51.440;7.308;2022-12-17T11:30:45;8.60;99.90
1896;DHT22;1455;51.440;7.308;2022-12-17T11:33:51;8.60;99.90
1896;DHT22;1455;51.440;7.308;2022-12-17T11:37:01;8.40;99.90
1896;DHT22;1455;51.440;7.308;2022-12-17T11:40:19;8.10;99.90
1896;DHT22;1455;51.440;7.308;2022-12-17T11:43:28;7.60;99.90
1896;DHT22;1455;51.440;7.308;2022-12-17T11:46:37;7.30;99.90
1896;DHT22;1455;51.440;7.308;2022-12-17T11:49:46;6.70;99.90
1896;DHT22;1455;51.440;7.308;2022-12-17T11:52:56;6.10;99.90
1896;DHT22;1455;51.440;7.308;2022-12-17T11:56:04;5.50;99.90
1896;DHT22;1455;51.440;7.308;2022-12-17T11:59:14;5.00;99.90
1896;DHT22;1455;51.440;7.308;2022-12-17T12:02:37;4.50;99.90
1896;DHT22;1455;51.440;7.308;2022-12-17T12:05:48;3.90;99.90
1896;DHT22;1455;51.440;7.308;2022-12-17T12:08:57;3.70;99.90
1896;DHT22;1455;51.440;7.308;2022-12-17T12:12:03;3.40;99.90
1896;DHT22;1455;51.440;7.308;2022-12-17T12:15:16;3.20;99.90
1896;DHT22;1455;51.440;7.308;2022-12-17T12:18:35;3.20;99.90
1896;DHT22;1455;51.440;7.308;2022-12-17T12:21:48;3.20;99.90
1896;DHT22;1455;51.440;7.308;2022-12-17T12:25:05;3.00;99.90
1896;DHT22;1455;51.440;7.308;2022-12-17T12:28:19;2.80;99.90
1896;DHT22;1455;51.440;7.308;2022-12-17T12:31:30;2.90;99.90
1896;DHT22;1455;51.440;7.308;2022-12-17T12:34:36;2.70;99.90
1896;DHT22;1455;51.440;7.308;2022-12-17T12:37:40;2.80;99.90
1896;DHT22;1455;51.440;7.308;2022-12-17T12:40:47;2.90;99.90
1896;DHT22;1455;51.440;7.308;2022-12-17T12:43:55;2.90;99.90
1896;DHT22;1455;51.440;7.308;2022-12-17T12:47:05;2.90;99.90
1896;DHT22;1455;51.440;7.308;2022-12-17T12:50:16;2.90;99.90
1896;DHT22;1455;51.440;7.308;2022-12-17T12:53:22;2.90;99.90
1896;DHT22;1455;51.440;7.308;2022-12-17T12:56:27;2.80;99.90
1896;DHT22;1455;51.440;7.308;2022-12-17T12:59:32;2.80;99.90
1896;DHT22;1455;51.440;7.308;2022-12-17T13:09:29;2.40;99.90
1896;DHT22;1455;51.440;7.308;2022-12-17T13:12:43;1.80;99.90
1896;DHT22;1455;51.440;7.308;2022-12-17T13:15:33;1.50;99.90
1896;DHT22;1455;51.440;7.308;2022-12-17T13:18:34;1.70;99.90
1896;DHT22;1455;51.440;7.308;2022-12-17T13:21:25;1.90;99.90
1896;DHT22;1455;51.440;7.308;2022-12-17T13:24:11;2.00;99.90
1896;DHT22;1455;51.440;7.308;2022-12-17T13:26:59;2.00;99.90
1896;DHT22;1455;51.440;7.308;2022-12-17T13:29:46;1.90;99.90
1896;DHT22;1455;51.440;7.308;2022-12-17T13:32:39;1.80;99.90
1896;DHT22;1455;51.440;7.308;2022-12-17T13:35:32;2.00;99.90
1896;DHT22;1455;51.440;7.308;2022-12-17T13:38:24;2.10;99.90
1896;DHT22;1455;51.440;7.308;2022-12-17T13:41:14;2.10;99.90
1896;DHT22;1455;51.440;7.308;2022-12-17T13:44:16;2.10;99.90
1896;DHT22;1455;51.440;7.308;2022-12-17T13:47:02;1.90;99.90
1896;DHT22;1455;51.440;7.308;2022-12-17T13:49:51;1.90;99.90
1896;DHT22;1455;51.440;7.308;2022-12-17T13:52:39;1.90;99.90
1896;DHT22;1455;51.440;7.308;2022-12-17T13:55:26;1.80;99.90
1896;DHT22;1455;51.440;7.308;2022-12-17T13:58:23;1.90;99.90
1896;DHT22;1455;51.440;7.308;2022-12-17T14:01:11;2.00;99.90
1896;DHT22;1455;51.440;7.308;2022-12-17T14:03:58;2.00;99.90
1896;DHT22;1455;51.440;7.308;2022-12-17T14:06:44;1.90;99.90
1896;DHT22;1455;51.440;7.308;2022-12-17T14:09:35;1.80;99.90
1896;DHT22;1455;51.440;7.308;2022-12-17T14:12:34;1.90;99.90
1896;DHT22;1455;51.440;7.308;2022-12-17T14:15:23;1.80;99.90
1896;DHT22;1455;51.440;7.308;2022-12-17T14:18:09;1.60;99.90
1896;DHT22;1455;51.440;7.308;2022-12-17T14:20:58;1.40;99.90
1896;DHT22;1455;51.440;7.308;2022-12-17T14:23:50;1.20;99.90
1896;DHT22;1455;51.440;7.308;2022-12-17T14:26:48;1.20;99.90
1896;DHT22;1455;51.440;7.308;2022-12-17T14:29:48;1.20;99.90
1896;DHT22;1455;51.440;7.308;2022-12-17T14:32:35;1.10;99.90
1896;DHT22;1455;51.440;7.308;2022-12-17T14:35:23;1.20;99.90
1896;DHT22;1455;51.440;7.308;2022-12-17T14:38:16;1.00;99.90
1896;DHT22;1455;51.440;7.308;2022-12-17T14:41:02;1.00;99.90
1896;DHT22;1455;51.440;7.308;2022-12-17T14:44:17;0.70;99.90
1896;DHT22;1455;51.440;7.308;2022-12-17T14:47:12;0.50;99.90
1896;DHT22;1455;51.440;7.308;2022-12-17T14:50:24;0.50;99.90
1896;DHT22;1455;51.440;7.308;2022-12-17T14:53:23;0.60;99.90
1896;DHT22;1455;51.440;7.308;2022-12-17T14:56:19;0.60;99.90
1896;DHT22;1455;51.440;7.308;2022-12-17T14:59:23;0.60;99.90
1896;DHT22;1455;51.440;7.308;2022-12-17T15:02:23;0.50;99.90
1896;DHT22;1455;51.440;7.308;2022-12-17T15:05:17;0.60;99.90
1896;DHT22;1455;51.440;7.308;2022-12-17T15:08:04;0.50;99.90
1896;DHT22;1455;51.440;7.308;2022-12-17T15:10:50;0.60;99.90
1896;DHT22;1455;51.440;7.308;2022-12-17T15:13:36;0.60;99.90
1896;DHT22;1455;51.440;7.308;2022-12-17T15:16:24;0.60;99.90
1896;DHT22;1455;51.440;7.308;2022-12-17T15:19:10;0.60;99.90
1896;DHT22;1455;51.440;7.308;2022-12-17T15:22:35;0.40;99.90
1896;DHT22;1455;51.440;7.308;2022-12-17T15:25:28;0.30;99.90
1896;DHT22;1455;51.440;7.308;2022-12-17T15:28:24;0.20;99.90
1896;DHT22;1455;51.440;7.308;2022-12-17T15:31:11;0.10;99.90
1896;DHT22;1455;51.440;7.308;2022-12-17T15:33:58;0.00;99.90
1896;DHT22;1455;51.440;7.308;2022-12-17T15:36:44;0.20;99.90
1896;DHT22;1455;51.440;7.308;2022-12-17T15:39:36;0.20;99.90
1896;DHT22;1455;51.440;7.308;2022-12-17T15:42:28;0.10;99.90
1896;DHT22;1455;51.440;7.308;2022-12-17T15:45:48;0.20;99.90
1896;DHT22;1455;51.440;7.308;2022-12-17T15:48:50;0.20;99.90
1896;DHT22;1455;51.440;7.308;2022-12-17T15:51:46;0.10;99.90
1896;DHT22;1455;51.440;7.308;2022-12-17T15:54:45;0.00;99.90
1896;DHT22;1455;51.440;7.308;2022-12-17T15:57:42;-0.10;99.90
1896;DHT22;1455;51.440;7.308;2022-12-17T16:00:46;-0.20;99.90
1896;DHT22;1455;51.440;7.308;2022-12-17T16:03:48;-0.20;99.90
1896;DHT22;1455;51.440;7.308;2022-12-17T16:07:10;-0.20;99.90
1896;DHT22;1455;51.440;7.308;2022-12-17T16:10:06;-0.10;99.90
1896;DHT22;1455;51.440;7.308;2022-12-17T16:13:16;-0.10;99.90
1896;DHT22;1455;51.440;7.308;2022-12-17T16:16:09;-0.40;99.90
1896;DHT22;1455;51.440;7.308;2022-12-17T16:18:57;-0.60;99.90
1896;DHT22;1455;51.440;7.308;2022-12-17T16:21:55;-0.60;99.90
1896;DHT22;1455;51.440;7.308;2022-12-17T16:25:04;-0.60;99.90
1896;DHT22;1455;51.440;7.308;2022-12-17T16:27:56;-0.60;99.90
1896;DHT22;1455;51.440;7.308;2022-12-17T16:31:00;-0.70;99.90
1896;DHT22;1455;51.440;7.308;2022-12-17T16:34:20;-0.70;99.90
1896;DHT22;1455;51.440;7.308;2022-12-17T16:37:40;-0.80;99.90
1896;DHT22;1455;51.440;7.308;2022-12-17T16:41:02;-0.60;99.90
1896;DHT22;1455;51.440;7.308;2022-12-17T16:44:03;-0.70;99.90
1896;DHT22;1455;51.440;7.308;2022-12-17T16:47:29;-0.70;99.90
1896;DHT22;1455;51.440;7.308;2022-12-17T16:50:53;-0.90;99.90
1896;DHT22;1455;51.440;7.308;2022-12-17T16:54:19;-1.00;99.90
1896;DHT22;1455;51.440;7.308;2022-12-17T16:57:13;-0.90;99.90
1896;DHT22;1455;51.440;7.308;2022-12-17T17:00:14;-0.80;99.90
1896;DHT22;1455;51.440;7.308;2022-12-17T17:03:07;-0.90;99.90
1896;DHT22;1455;51.440;7.308;2022-12-17T17:05:54;-1.00;99.90
1896;DHT22;1455;51.440;7.308;2022-12-17T17:08:48;-1.00;99.90
1896;DHT22;1455;51.440;7.308;2022-12-17T17:11:37;-1.10;99.90
1896;DHT22;1455;51.440;7.308;2022-12-17T17:14:36;-1.10;99.90
1896;DHT22;1455;51.440;7.308;2022-12-17T17:17:29;-1.30;99.90
1896;DHT22;1455;51.440;7.308;2022-12-17T17:20:16;-1.40;99.90
1896;DHT22;1455;51.440;7.308;2022-12-17T22:38:54;-2.00;99.90
1896;DHT22;1455;51.440;7.308;2022-12-17T22:41:41;-2.00;99.90
1896;DHT22;1455;51.440;7.308;2022-12-17T22:44:44;-2.20;99.90
1896;DHT22;1455;51.440;7.308;2022-12-17T22:47:29;-2.20;99.90
1896;DHT22;1455;51.440;7.308;2022-12-17T23:35:54;-1.70;99.90
1896;DHT22;1455;51.440;7.308;2022-12-17T23:38:51;-1.70;99.90
1896;DHT22;1455;51.440;7.308;2022-12-17T23:41:40;-1.60;99.90
1896;DHT22;1455;51.440;7.308;2022-12-17T23:44:29;-1.60;99.90
